createdAt,value
2017-07-11T00:00:42.267Z,61.30
2017-07-11T00:03:10.506Z,61.20
2017-07-11T00:05:38.731Z,60.60
2017-07-11T00:08:07.395Z,61.00
2017-07-11T00:10:35.631Z,61.00
2017-07-11T00:13:03.860Z,61.00
2017-07-11T00:15:32.126Z,61.00
2017-07-11T00:18:00.381Z,60.80
2017-07-11T00:20:28.605Z,60.60
2017-07-11T00:22:56.882Z,61.20
2017-07-11T00:25:25.521Z,61.20
2017-07-11T00:27:53.744Z,61.20
2017-07-11T00:30:22.020Z,60.80
2017-07-11T00:32:50.250Z,60.40
2017-07-11T00:35:18.488Z,60.10
2017-07-11T00:37:46.759Z,60.10
2017-07-11T00:40:14.997Z,59.80
2017-07-11T00:42:43.228Z,59.40
2017-07-11T00:45:11.484Z,59.70
2017-07-11T00:47:39.717Z,60.10
2017-07-11T00:50:07.944Z,59.70
2017-07-11T00:52:36.213Z,59.40
2017-07-11T00:55:04.745Z,59.50
2017-07-11T00:57:32.971Z,59.20
2017-07-11T01:00:01.236Z,59.20
2017-07-11T01:02:29.474Z,59.20
2017-07-11T01:04:57.708Z,59.40
2017-07-11T01:07:25.997Z,59.40
2017-07-11T01:09:54.229Z,59.40
2017-07-11T01:12:22.467Z,59.40
2017-07-11T01:14:50.734Z,59.10
2017-07-11T01:17:18.982Z,59.40
2017-07-11T01:19:47.272Z,59.10
2017-07-11T01:22:15.558Z,58.90
2017-07-11T01:24:43.795Z,58.90
2017-07-11T01:27:12.020Z,58.90
2017-07-11T01:29:40.290Z,59.10
2017-07-11T01:32:08.539Z,59.10
2017-07-11T01:34:36.768Z,58.60
2017-07-11T01:37:05.422Z,58.90
2017-07-11T01:39:33.647Z,58.90
2017-07-11T01:42:01.886Z,58.90
2017-07-11T01:44:30.155Z,59.10
2017-07-11T01:46:58.378Z,59.20
2017-07-11T01:49:26.614Z,58.90
2017-07-11T01:51:54.878Z,59.10
2017-07-11T01:54:23.128Z,59.20
2017-07-11T01:56:51.353Z,59.40
2017-07-11T01:59:20.020Z,58.80
2017-07-11T02:01:48.254Z,58.80
2017-07-11T02:04:16.484Z,58.30
2017-07-11T02:06:44.748Z,58.60
2017-07-11T02:09:12.981Z,58.20
2017-07-11T02:11:41.501Z,58.20
2017-07-11T02:14:09.785Z,57.70
2017-07-11T02:16:38.016Z,57.90
2017-07-11T02:19:06.252Z,57.60
2017-07-11T02:21:34.910Z,57.70
2017-07-11T02:24:03.146Z,57.70
2017-07-11T02:26:31.460Z,57.60
2017-07-11T02:28:59.809Z,57.60
2017-07-11T02:31:28.045Z,58.00
2017-07-11T02:33:56.677Z,57.60
2017-07-11T02:36:25.286Z,57.60
2017-07-11T02:38:53.774Z,57.30
2017-07-11T02:41:22.009Z,57.30
2017-07-11T02:43:50.283Z,57.30
2017-07-11T02:46:18.564Z,56.70
2017-07-11T02:48:46.792Z,56.90
2017-07-11T02:51:15.470Z,57.60
2017-07-11T02:53:43.709Z,57.40
2017-07-11T02:56:11.933Z,57.30
2017-07-11T02:58:40.593Z,57.40
2017-07-11T03:01:08.824Z,57.40
2017-07-11T03:03:37.061Z,57.40
2017-07-11T03:06:05.709Z,57.20
2017-07-11T03:08:33.936Z,57.20
2017-07-11T03:11:02.209Z,56.90
2017-07-11T03:13:30.488Z,57.30
2017-07-11T03:15:58.718Z,57.40
2017-07-11T03:18:26.957Z,57.20
2017-07-11T03:20:55.216Z,55.80
2017-07-11T03:23:23.449Z,56.60
2017-07-11T03:25:51.679Z,57.20
2017-07-11T03:28:19.977Z,56.00
2017-07-11T03:30:48.215Z,57.00
2017-07-11T03:33:16.844Z,56.90
2017-07-11T03:35:45.113Z,56.90
2017-07-11T03:38:13.337Z,56.70
2017-07-11T03:40:41.975Z,57.00
2017-07-11T03:43:10.232Z,57.00
2017-07-11T03:45:38.459Z,56.90
2017-07-11T03:48:06.696Z,56.10
2017-07-11T03:50:34.961Z,56.40
2017-07-11T03:53:03.192Z,56.90
2017-07-11T03:55:31.821Z,56.10
2017-07-11T03:58:00.125Z,56.10
2017-07-11T04:00:28.365Z,56.60
2017-07-11T04:02:56.592Z,56.40
2017-07-11T04:05:24.853Z,56.40
2017-07-11T04:07:53.095Z,56.60
2017-07-11T04:10:21.329Z,56.70
2017-07-11T04:12:49.601Z,56.60
2017-07-11T04:15:17.828Z,56.60
2017-07-11T04:17:46.069Z,56.00
2017-07-11T04:20:14.332Z,55.20
2017-07-11T04:22:42.621Z,55.40
2017-07-11T04:25:10.825Z,55.40
2017-07-11T04:27:39.115Z,55.50
2017-07-11T04:30:07.396Z,55.70
2017-07-11T04:32:35.633Z,55.50
2017-07-11T04:35:03.893Z,55.20
2017-07-11T04:37:32.527Z,54.10
2017-07-11T04:40:00.792Z,54.10
2017-07-11T04:42:29.048Z,55.20
2017-07-11T04:44:57.281Z,55.80
2017-07-11T04:47:25.519Z,55.80
2017-07-11T04:49:53.819Z,55.70
2017-07-11T04:52:22.041Z,53.80
2017-07-11T04:54:50.280Z,53.60
2017-07-11T04:57:18.869Z,54.60
2017-07-11T04:59:47.101Z,53.90
2017-07-11T05:02:15.336Z,55.50
2017-07-11T05:04:43.997Z,55.80
2017-07-11T05:07:12.304Z,55.80
2017-07-11T05:09:40.540Z,54.60
2017-07-11T05:12:08.826Z,54.20
2017-07-11T05:14:37.053Z,55.40
2017-07-11T05:17:05.296Z,55.70
2017-07-11T05:19:33.956Z,54.80
2017-07-11T05:22:02.195Z,54.80
2017-07-11T05:24:30.424Z,54.20
2017-07-11T05:26:58.684Z,54.30
2017-07-11T05:29:26.928Z,53.90
2017-07-11T05:31:55.177Z,54.20
2017-07-11T05:34:23.472Z,53.50
2017-07-11T05:36:51.714Z,53.60
2017-07-11T05:39:20.352Z,52.30
2017-07-11T05:41:48.609Z,52.30
2017-07-11T05:44:16.844Z,53.60
2017-07-11T05:46:45.061Z,53.30
2017-07-11T05:49:13.340Z,53.60
2017-07-11T05:51:41.577Z,51.50
2017-07-11T05:54:10.209Z,52.40
2017-07-11T05:56:38.510Z,52.40
2017-07-11T05:59:06.771Z,52.90
2017-07-11T06:01:35.029Z,49.80
2017-07-11T06:04:03.340Z,50.10
2017-07-11T06:06:31.584Z,52.90
2017-07-11T06:08:59.850Z,55.70
2017-07-11T06:11:28.277Z,57.40
2017-07-11T06:13:56.535Z,57.60
2017-07-11T06:16:25.010Z,56.40
2017-07-11T06:18:53.301Z,57.60
2017-07-11T06:21:22.865Z,59.40
2017-07-11T06:23:51.136Z,57.40
2017-07-11T06:26:19.629Z,57.70
2017-07-11T06:28:47.884Z,52.70
2017-07-11T06:31:16.141Z,58.00
2017-07-11T06:33:44.888Z,55.50
2017-07-11T06:36:13.145Z,55.50
2017-07-11T06:38:41.402Z,58.80
2017-07-11T06:41:09.781Z,57.90
2017-07-11T06:43:38.066Z,56.00
2017-07-11T06:46:06.362Z,51.80
2017-07-11T06:48:34.649Z,51.50
2017-07-11T06:51:02.935Z,54.20
2017-07-11T06:53:31.184Z,54.20
2017-07-11T06:55:59.568Z,52.30
2017-07-11T06:58:27.825Z,52.10
2017-07-11T07:00:56.166Z,52.40
2017-07-11T07:03:24.624Z,50.20
2017-07-11T07:05:53.119Z,48.70
2017-07-11T07:08:21.425Z,50.10
2017-07-11T07:10:49.948Z,51.70
2017-07-11T07:13:18.238Z,52.70
2017-07-11T07:15:46.497Z,49.20
2017-07-11T07:18:14.999Z,49.00
2017-07-11T07:20:43.251Z,51.20
2017-07-11T07:23:11.501Z,49.60
2017-07-11T07:25:39.789Z,50.40
2017-07-11T07:28:08.032Z,50.50
2017-07-11T07:30:36.307Z,51.80
2017-07-11T07:33:04.618Z,48.40
2017-07-11T07:35:32.922Z,48.40
2017-07-11T07:38:01.202Z,48.90
2017-07-11T07:40:29.461Z,47.70
2017-07-11T07:42:57.776Z,45.80
2017-07-11T07:45:26.626Z,46.50
2017-07-11T07:47:54.936Z,45.90
2017-07-11T07:50:23.198Z,48.10
2017-07-11T07:52:52.197Z,48.90
2017-07-11T07:55:20.478Z,42.20
2017-07-11T07:57:48.719Z,45.50
2017-07-11T08:00:16.981Z,50.10
2017-07-11T08:02:45.258Z,47.50
2017-07-11T08:05:13.506Z,48.70
2017-07-11T08:07:42.073Z,50.40
2017-07-11T08:10:10.363Z,53.00
2017-07-11T08:12:38.622Z,47.80
2017-07-11T08:15:06.872Z,47.50
2017-07-11T08:17:36.087Z,45.50
2017-07-11T08:20:04.352Z,44.60
2017-07-11T08:22:32.606Z,44.70
2017-07-11T08:25:00.929Z,40.00
2017-07-11T08:27:29.173Z,40.00
2017-07-11T08:29:57.521Z,39.30
2017-07-11T08:32:25.998Z,39.00
2017-07-11T08:34:55.169Z,40.50
2017-07-11T08:37:23.410Z,42.50
2017-07-11T08:39:51.774Z,39.40
2017-07-11T08:42:19.999Z,39.60
2017-07-11T08:44:48.647Z,41.20
2017-07-11T08:47:16.932Z,41.30
2017-07-11T08:49:45.187Z,43.10
2017-07-11T08:52:13.443Z,42.10
2017-07-11T08:54:41.725Z,41.50
2017-07-11T08:57:09.972Z,40.30
2017-07-11T08:59:38.830Z,35.90
2017-07-11T09:02:07.118Z,35.90
2017-07-11T09:04:35.357Z,38.20
2017-07-11T09:07:03.611Z,37.60
2017-07-11T09:09:32.819Z,41.30
2017-07-11T09:12:01.059Z,37.60
2017-07-11T09:14:30.066Z,39.70
2017-07-11T09:16:58.382Z,39.70
2017-07-11T09:19:26.667Z,40.90
2017-07-11T09:21:54.914Z,40.70
2017-07-11T09:24:23.248Z,40.30
2017-07-11T09:26:51.493Z,40.70
2017-07-11T09:29:19.770Z,39.60
2017-07-11T09:31:48.969Z,37.90
2017-07-11T09:34:17.270Z,36.20
2017-07-11T09:36:46.775Z,35.70
2017-07-11T09:39:15.051Z,35.70
2017-07-11T09:41:43.681Z,38.70
2017-07-11T09:44:12.678Z,38.70
2017-07-11T09:46:41.105Z,37.20
2017-07-11T09:49:09.695Z,38.10
2017-07-11T09:51:37.925Z,38.70
2017-07-11T09:54:06.274Z,37.20
2017-07-11T09:56:34.539Z,40.60
2017-07-11T09:59:02.787Z,41.20
2017-07-11T10:01:31.087Z,41.30
2017-07-11T10:03:59.642Z,39.70
2017-07-11T10:06:28.382Z,38.10
2017-07-11T10:08:56.701Z,36.80
2017-07-11T10:11:25.889Z,38.70
2017-07-11T10:13:54.144Z,39.90
2017-07-11T10:16:22.542Z,39.90
2017-07-11T10:18:50.826Z,40.20
2017-07-11T10:21:19.079Z,39.70
2017-07-11T10:23:47.330Z,39.00
2017-07-11T10:26:15.625Z,40.30
2017-07-11T10:28:43.867Z,39.60
2017-07-11T10:31:13.013Z,39.00
2017-07-11T10:33:41.631Z,39.00
2017-07-11T10:36:09.910Z,39.10
2017-07-11T10:38:38.644Z,38.80
2017-07-11T10:41:06.887Z,39.00
2017-07-11T10:43:35.155Z,39.00
2017-07-11T10:46:03.438Z,39.10
2017-07-11T10:48:32.065Z,39.10
2017-07-11T10:51:00.310Z,39.00
2017-07-11T10:53:28.615Z,39.00
2017-07-11T10:55:56.858Z,37.90
2017-07-11T10:58:25.105Z,36.90
2017-07-11T11:00:54.086Z,33.70
2017-07-11T11:03:22.319Z,35.00
2017-07-11T11:05:50.578Z,34.80
2017-07-11T11:08:18.851Z,36.60
2017-07-11T11:10:47.133Z,33.70
2017-07-11T11:13:15.366Z,37.20
2017-07-11T11:15:43.630Z,35.70
2017-07-11T11:18:12.087Z,37.20
2017-07-11T11:20:40.346Z,37.20
2017-07-11T11:23:08.637Z,36.00
2017-07-11T11:25:36.877Z,36.80
2017-07-11T11:28:05.115Z,38.10
2017-07-11T11:30:33.465Z,38.70
2017-07-11T11:33:01.717Z,38.80
2017-07-11T11:35:29.977Z,36.20
2017-07-11T11:37:58.257Z,35.40
2017-07-11T11:40:26.592Z,36.90
2017-07-11T11:42:54.813Z,38.50
2017-07-11T11:45:23.077Z,39.90
2017-07-11T11:47:51.716Z,41.50
2017-07-11T11:50:19.969Z,41.50
2017-07-11T11:52:48.261Z,40.00
2017-07-11T11:55:16.498Z,39.60
2017-07-11T11:57:45.143Z,37.20
2017-07-11T12:00:13.421Z,37.20
2017-07-11T12:02:41.877Z,38.80
2017-07-11T12:05:10.134Z,38.40
2017-07-11T12:07:38.426Z,39.30
2017-07-11T12:10:06.737Z,39.70
2017-07-11T12:12:35.015Z,38.50
2017-07-11T12:15:04.888Z,39.30
2017-07-11T12:17:33.136Z,40.90
2017-07-11T12:20:01.389Z,43.10
2017-07-11T12:22:29.670Z,44.70
2017-07-11T12:24:58.331Z,42.40
2017-07-11T12:27:26.561Z,42.40
2017-07-11T12:29:54.872Z,41.00
2017-07-11T12:32:23.124Z,39.60
2017-07-11T12:34:51.390Z,40.50
2017-07-11T12:37:19.686Z,40.20
2017-07-11T12:39:47.939Z,40.90
2017-07-11T12:42:16.187Z,43.10
2017-07-11T12:44:44.481Z,44.00
2017-07-11T12:47:12.813Z,45.30
2017-07-11T12:49:41.049Z,45.20
2017-07-11T12:52:09.363Z,44.10
2017-07-11T12:54:37.594Z,42.70
2017-07-11T12:57:06.058Z,41.90
2017-07-11T12:59:34.537Z,40.30
2017-07-11T13:02:03.004Z,40.00
2017-07-11T13:04:31.470Z,39.70
2017-07-11T13:06:59.738Z,40.50
2017-07-11T13:09:27.982Z,40.50
2017-07-11T13:11:56.239Z,39.00
2017-07-11T13:14:24.533Z,41.50
2017-07-11T13:16:52.821Z,44.00
2017-07-11T13:19:21.185Z,45.80
2017-07-11T13:21:49.474Z,46.80
2017-07-11T13:24:17.717Z,46.80
2017-07-11T13:26:46.198Z,46.20
2017-07-11T13:29:14.520Z,45.00
2017-07-11T13:31:42.799Z,44.10
2017-07-11T13:34:11.031Z,43.70
2017-07-11T13:36:39.311Z,44.10
2017-07-11T13:39:07.559Z,44.30
2017-07-11T13:41:35.797Z,43.90
2017-07-11T13:44:04.103Z,43.70
2017-07-11T13:46:32.351Z,44.00
2017-07-11T13:49:00.605Z,44.30
2017-07-11T13:51:28.920Z,45.00
2017-07-11T13:53:57.166Z,45.80
2017-07-11T13:56:25.451Z,46.20
2017-07-11T13:58:53.730Z,45.50
2017-07-11T14:01:21.997Z,45.60
2017-07-11T14:03:50.236Z,46.10
2017-07-11T14:06:18.519Z,45.90
2017-07-11T14:08:46.753Z,47.10
2017-07-11T14:11:15.236Z,45.90
2017-07-11T14:13:43.517Z,46.10
2017-07-11T14:16:11.761Z,46.50
2017-07-11T14:18:40.042Z,47.70
2017-07-11T14:21:08.352Z,50.70
2017-07-11T14:23:37.223Z,54.20
2017-07-11T14:26:05.491Z,54.20
2017-07-11T14:28:33.772Z,56.90
2017-07-11T14:31:02.042Z,56.90
2017-07-11T14:33:30.315Z,57.30
2017-07-11T14:35:58.704Z,58.00
2017-07-11T14:38:26.995Z,58.50
2017-07-11T14:40:55.705Z,59.40
2017-07-11T14:43:24.034Z,59.40
2017-07-11T14:45:52.298Z,58.00
2017-07-11T14:48:21.103Z,58.60
2017-07-11T14:50:49.394Z,58.30
2017-07-11T14:53:23.976Z,59.50
2017-07-11T14:55:52.659Z,59.40
2017-07-11T14:58:20.898Z,59.40
2017-07-11T15:00:49.645Z,56.70
2017-07-11T15:03:18.373Z,54.90
2017-07-11T15:05:46.658Z,54.90
2017-07-11T15:08:15.313Z,53.20
2017-07-11T15:10:43.642Z,53.20
2017-07-11T15:13:11.884Z,53.80
2017-07-11T15:15:40.549Z,51.80
2017-07-11T15:18:09.481Z,51.50
2017-07-11T15:20:37.761Z,50.90
2017-07-11T15:23:06.499Z,49.90
2017-07-11T15:25:34.795Z,49.90
2017-07-11T15:28:03.069Z,49.50
2017-07-11T15:30:31.325Z,49.20
2017-07-11T15:32:59.629Z,48.60
2017-07-11T15:35:28.284Z,48.10
2017-07-11T15:37:56.537Z,48.10
2017-07-11T15:40:24.830Z,48.30
2017-07-11T15:42:53.086Z,47.70
2017-07-11T15:45:21.360Z,48.00
2017-07-11T15:47:49.669Z,47.70
2017-07-11T15:50:17.919Z,47.10
2017-07-11T15:52:46.174Z,47.10
2017-07-11T15:55:14.459Z,46.80
2017-07-11T15:57:42.869Z,46.80
2017-07-11T16:00:11.446Z,47.70
2017-07-11T16:02:40.170Z,48.40
2017-07-11T16:05:08.427Z,48.40
2017-07-11T16:07:36.705Z,46.80
2017-07-11T16:10:05.065Z,47.70
2017-07-11T16:12:33.326Z,47.30
2017-07-11T16:15:01.577Z,47.40
2017-07-11T16:17:29.917Z,46.10
2017-07-11T16:19:58.602Z,47.70
2017-07-11T16:22:26.853Z,47.70
2017-07-11T16:24:55.171Z,48.10
2017-07-11T16:27:23.833Z,48.10
2017-07-11T16:29:52.090Z,48.10
2017-07-11T16:32:20.368Z,48.70
2017-07-11T16:34:48.618Z,48.10
2017-07-11T16:37:16.919Z,48.00
2017-07-11T16:39:46.087Z,48.30
2017-07-11T16:42:14.365Z,48.10
2017-07-11T16:44:42.669Z,48.10
2017-07-11T16:47:10.933Z,47.80
2017-07-11T16:49:39.329Z,45.60
2017-07-11T16:52:07.586Z,47.00
2017-07-11T16:54:35.861Z,46.50
2017-07-11T16:57:04.157Z,46.20
2017-07-11T16:59:32.402Z,47.40
2017-07-11T17:02:00.772Z,47.50
2017-07-11T17:04:29.308Z,47.50
2017-07-11T17:06:57.577Z,46.80
2017-07-11T17:09:26.077Z,46.70
2017-07-11T17:11:54.330Z,46.80
2017-07-11T17:14:22.591Z,47.00
2017-07-11T17:16:50.875Z,46.80
2017-07-11T17:19:19.119Z,47.30
2017-07-11T17:21:47.358Z,47.30
2017-07-11T17:24:16.116Z,47.30
2017-07-11T17:26:44.379Z,47.30
2017-07-11T17:29:12.634Z,46.80
2017-07-11T17:31:40.927Z,47.40
2017-07-11T17:34:09.190Z,47.30
2017-07-11T17:36:37.441Z,47.30
2017-07-11T17:39:05.751Z,46.50
2017-07-11T17:41:34.035Z,48.70
2017-07-11T17:44:02.280Z,48.60
2017-07-11T17:46:30.791Z,49.30
2017-07-11T17:48:59.274Z,49.80
2017-07-11T17:51:28.097Z,50.70
2017-07-11T17:53:57.804Z,51.20
2017-07-11T17:56:26.400Z,50.20
2017-07-11T17:58:55.143Z,51.10
2017-07-11T18:01:23.428Z,51.10
2017-07-11T18:03:53.174Z,52.60
2017-07-11T18:06:21.898Z,53.90
2017-07-11T18:08:50.290Z,53.60
2017-07-11T18:11:18.551Z,53.20
2017-07-11T18:13:46.809Z,53.00
2017-07-11T18:16:15.175Z,52.70
2017-07-11T18:18:43.425Z,52.70
2017-07-11T18:21:11.683Z,52.60
2017-07-11T18:23:40.062Z,52.60
2017-07-11T18:26:09.728Z,52.60
2017-07-11T18:28:39.290Z,53.20
2017-07-11T18:31:07.622Z,53.30
2017-07-11T18:33:35.872Z,53.20
2017-07-11T18:36:04.129Z,52.90
2017-07-11T18:38:32.420Z,53.00
2017-07-11T18:41:00.870Z,52.70
2017-07-11T18:43:29.469Z,52.40
2017-07-11T18:45:57.814Z,52.60
2017-07-11T18:48:26.365Z,52.90
2017-07-11T18:50:54.622Z,53.00
2017-07-11T18:53:23.390Z,52.70
2017-07-11T18:55:51.636Z,52.70
2017-07-11T18:58:19.894Z,52.90
2017-07-11T19:00:49.257Z,53.20
2017-07-11T19:03:17.516Z,53.20
2017-07-11T19:05:45.969Z,53.20
2017-07-11T19:08:14.308Z,53.30
2017-07-11T19:10:42.626Z,53.00
2017-07-11T19:13:10.882Z,53.20
2017-07-11T19:15:39.150Z,53.00
2017-07-11T19:18:07.419Z,53.00
2017-07-11T19:20:35.678Z,53.00
2017-07-11T19:23:03.989Z,53.00
2017-07-11T19:25:32.238Z,52.70
2017-07-11T19:28:00.512Z,52.70
2017-07-11T19:30:28.842Z,52.70
2017-07-11T19:32:57.163Z,52.10
2017-07-11T19:35:25.506Z,51.80
2017-07-11T19:37:54.085Z,51.50
2017-07-11T19:40:22.910Z,51.40
2017-07-11T19:42:51.413Z,52.00
2017-07-11T19:45:19.730Z,51.40
2017-07-11T19:47:48.010Z,52.40
2017-07-11T19:50:16.684Z,51.50
2017-07-11T19:52:44.984Z,51.50
2017-07-11T19:55:13.238Z,51.70
2017-07-11T19:57:41.513Z,51.50
2017-07-11T20:00:09.822Z,51.50
2017-07-11T20:02:38.489Z,51.80
2017-07-11T20:05:06.749Z,51.80
2017-07-11T20:07:35.137Z,52.10
2017-07-11T20:10:03.386Z,51.20
2017-07-11T20:12:31.769Z,51.10
2017-07-11T20:15:00.076Z,51.50
2017-07-11T20:17:28.349Z,51.80
2017-07-11T20:19:56.645Z,51.80
2017-07-11T20:22:29.799Z,52.10
2017-07-11T20:24:58.069Z,51.70
2017-07-11T20:27:26.331Z,50.90
2017-07-11T20:29:54.650Z,51.50
2017-07-11T20:32:23.205Z,51.50
2017-07-11T20:34:51.492Z,51.70
2017-07-11T20:37:20.097Z,49.80
2017-07-11T20:39:48.342Z,51.80
2017-07-11T20:42:16.597Z,51.40
2017-07-11T20:44:44.938Z,49.00
2017-07-11T20:47:13.591Z,51.50
2017-07-11T20:49:41.844Z,51.50
2017-07-11T20:52:10.148Z,50.70
2017-07-11T20:54:39.257Z,52.00
2017-07-11T20:57:07.509Z,51.50
2017-07-11T20:59:35.810Z,51.50
2017-07-11T21:02:04.470Z,50.90
2017-07-11T21:04:32.782Z,50.90
2017-07-11T21:07:01.452Z,52.60
2017-07-11T21:09:29.932Z,52.60
2017-07-11T21:11:58.192Z,53.50
2017-07-11T21:14:26.478Z,53.90
2017-07-11T21:16:55.255Z,55.40
2017-07-11T21:19:23.520Z,55.40
2017-07-11T21:21:51.839Z,55.80
2017-07-11T21:24:20.504Z,56.60
2017-07-11T21:26:49.008Z,56.60
2017-07-11T21:29:17.719Z,58.50
2017-07-11T21:31:45.961Z,58.50
2017-07-11T21:34:14.945Z,57.30
2017-07-11T21:36:43.277Z,57.30
2017-07-11T21:39:11.570Z,57.60
2017-07-11T21:41:45.326Z,55.40
2017-07-11T21:44:14.192Z,55.40
2017-07-11T21:46:42.443Z,58.90
2017-07-11T21:49:10.725Z,55.40
2017-07-11T21:51:38.980Z,53.50
2017-07-11T21:54:07.730Z,54.10
2017-07-11T21:56:36.296Z,54.80
2017-07-11T21:59:04.535Z,56.40
2017-07-11T22:01:33.654Z,53.90
2017-07-11T22:04:05.042Z,53.90
2017-07-11T22:06:35.487Z,55.40
2017-07-11T22:09:03.776Z,55.10
2017-07-11T22:11:32.039Z,56.00
2017-07-11T22:14:00.302Z,56.40
2017-07-11T22:16:28.631Z,57.30
2017-07-11T22:18:56.963Z,56.30
2017-07-11T22:21:25.387Z,56.10
2017-07-11T22:23:53.981Z,56.00
2017-07-11T22:26:22.247Z,56.40
2017-07-11T22:28:50.738Z,56.60
2017-07-11T22:31:19.139Z,56.90
2017-07-11T22:33:47.384Z,56.10
2017-07-11T22:36:15.656Z,56.40
2017-07-11T22:38:44.040Z,55.10
2017-07-11T22:41:12.320Z,54.50
2017-07-11T22:43:40.565Z,54.60
2017-07-11T22:46:08.830Z,54.80
2017-07-11T22:48:37.088Z,55.40
2017-07-11T22:51:05.766Z,55.20
2017-07-11T22:53:34.065Z,55.20
2017-07-11T22:56:02.309Z,55.40
2017-07-11T22:58:30.952Z,55.80
2017-07-11T23:00:59.265Z,55.80
2017-07-11T23:03:27.498Z,54.90
2017-07-11T23:05:55.763Z,55.10
2017-07-11T23:08:24.040Z,56.60
2017-07-11T23:10:52.855Z,58.20
2017-07-11T23:13:21.118Z,56.40
2017-07-11T23:15:53.379Z,57.20
2017-07-11T23:18:21.643Z,54.50
2017-07-11T23:20:49.909Z,55.10
2017-07-11T23:23:18.197Z,55.80
2017-07-11T23:25:46.451Z,55.50
2017-07-11T23:28:14.708Z,55.20
2017-07-11T23:30:43.421Z,57.70
2017-07-11T23:33:11.738Z,57.70
2017-07-11T23:35:40.000Z,57.70
2017-07-11T23:38:08.291Z,59.50
2017-07-11T23:40:36.784Z,59.10
2017-07-11T23:43:05.034Z,59.70
2017-07-11T23:45:33.340Z,59.70
2017-07-11T23:48:01.585Z,60.00
2017-07-11T23:50:29.836Z,60.00
2017-07-11T23:52:58.126Z,59.80
2017-07-11T23:55:26.409Z,59.70
2017-07-11T23:57:54.649Z,60.00
